Airfield :







YOU CAN JOIN US ON...

 
LOGIN :

Register | Disclaimer

   EN    FR    IT 

 









Legend :    VFR   Marginal VFR   IFR   Intensive IFR   Very Intensive IFR
Visi :
Ceiling :
>= 8 km
>= 3000ft
5 to 8 km
1000 to 3000 ft
1500m to 5 km
500 to 1000 ft
800 to 1500m
200 to 500 ft
< 800m
< 200 ft
Symbols :   Thunderstorms  Fog  Heavy snow  Heavy precipitations  Wind > 20 kt






- Airport Elevation : 129 ft
- IATA code : YVP


CYVP - Kuujjuak

CURRENT METAR :
  • 272300Z 19004KT 140V250 15SM -SN BKN130 M21/M25 A3003 RMK AC7 SLP175

EXPIRED METARs :
  • 272228Z 26003KT 180V290 15SM -SN BKN130 M21/M25 A3003 RMK AC7 SLP177
  • 272200Z 25007KT 15SM BKN130 M21/M25 A3003 RMK AC6 SLP177
  • 272100Z 25008KT 15SM FEW055 BKN120 M22/M25 A3003 RMK SC1AC5 SC TR SLP178

TAF TAF CYVP
Valid from the 28 at 00:00 until the 28 at 12:00 UTC


272338Z 2800/2812 20006KT P6SM FEW020 BKN120
FM281000 22010KT P6SM BKN030 RMK NXT FCST BY 280600Z



MET'MAP, your aeronautical weather chart ! - Copyright ORBIFLY December 2007 - Disclaimer

ORBIFLY MET'MAP TEAM :

Programming & Development : Alexandra Zaïnal
Concept & original design : Baudouin d'Aumeries
Assistance for programming : Marc-Olivier Méhu
Technical & hardware support : Manuel Goepfert

Contact : metmap@orbifly.com




SOURCES & CREDITS :

   NOAA